createdAt,value
2018-09-16T00:00:51.636Z,99.99
2018-09-16T00:01:51.901Z,99.99
2018-09-16T00:02:52.038Z,99.99
2018-09-16T00:03:52.175Z,99.99
2018-09-16T00:04:52.585Z,99.99
2018-09-16T00:05:53.556Z,99.99
2018-09-16T00:06:53.970Z,99.99
2018-09-16T00:07:54.106Z,99.99
2018-09-16T00:08:54.519Z,99.99
2018-09-16T00:09:54.661Z,99.99
2018-09-16T00:10:54.791Z,99.99
2018-09-16T00:11:55.780Z,99.99
2018-09-16T00:12:56.198Z,99.99
2018-09-16T00:13:56.885Z,99.99
2018-09-16T00:14:57.301Z,99.99
2018-09-16T00:15:57.713Z,99.99
2018-09-16T00:16:58.406Z,99.99
2018-09-16T00:17:59.100Z,99.99
2018-09-16T00:18:59.513Z,99.99
2018-09-16T00:19:59.650Z,99.99
2018-09-16T00:21:00.343Z,99.99
2018-09-16T00:22:01.054Z,99.99
2018-09-16T00:23:02.022Z,99.99
2018-09-16T00:24:02.717Z,99.99
2018-09-16T00:25:03.138Z,99.99
2018-09-16T00:26:03.544Z,99.99
2018-09-16T00:27:04.238Z,99.99
2018-09-16T00:28:04.371Z,99.99
2018-09-16T00:29:05.341Z,99.99
2018-09-16T00:30:06.035Z,99.99
2018-09-16T00:31:06.729Z,99.99
2018-09-16T00:32:07.726Z,99.99
2018-09-16T00:33:08.141Z,99.99
2018-09-16T00:34:08.277Z,99.99
2018-09-16T00:35:08.967Z,99.99
2018-09-16T00:36:09.381Z,99.99
2018-09-16T00:37:09.795Z,99.99
2018-09-16T00:38:10.490Z,99.99
2018-09-16T00:39:11.185Z,99.99
2018-09-16T00:40:11.599Z,99.99
2018-09-16T00:41:11.735Z,99.99
2018-09-16T00:42:12.723Z,99.99
2018-09-16T00:43:13.138Z,99.99
2018-09-16T00:44:13.552Z,99.99
2018-09-16T00:45:13.966Z,99.99
2018-09-16T00:46:14.105Z,99.99
2018-09-16T00:47:14.248Z,99.99
2018-09-16T00:48:14.661Z,99.99
2018-09-16T00:49:15.077Z,99.99
2018-09-16T00:50:16.046Z,99.99
2018-09-16T00:51:16.735Z,99.99
2018-09-16T00:52:16.725Z,99.99
2018-09-16T00:53:16.861Z,99.99
2018-09-16T00:54:17.272Z,99.99
2018-09-16T00:55:17.724Z,99.99
2018-09-16T00:56:18.138Z,99.99
2018-09-16T00:57:19.106Z,99.99
2018-09-16T00:58:19.245Z,99.99
2018-09-16T00:59:19.661Z,99.99
2018-09-16T01:00:19.794Z,99.99
2018-09-16T01:01:19.929Z,99.99
2018-09-16T01:02:20.471Z,99.99
2018-09-16T01:03:20.884Z,99.99
2018-09-16T01:04:21.856Z,99.99
2018-09-16T01:05:22.269Z,99.99
2018-09-16T01:06:22.682Z,99.99
2018-09-16T01:07:22.818Z,99.99
2018-09-16T01:08:23.230Z,99.99
2018-09-16T01:09:23.366Z,99.99
2018-09-16T01:10:23.780Z,99.99
2018-09-16T01:11:23.918Z,99.99
2018-09-16T01:12:24.460Z,99.99
2018-09-16T01:13:24.600Z,99.99
2018-09-16T01:14:25.292Z,99.99
2018-09-16T01:15:25.427Z,99.99
2018-09-16T01:16:26.117Z,99.99
2018-09-16T01:17:26.257Z,99.99
2018-09-16T01:18:26.393Z,99.99
2018-09-16T01:19:26.813Z,99.99
2018-09-16T01:20:27.509Z,99.99
2018-09-16T01:21:27.643Z,99.99
2018-09-16T01:22:28.629Z,99.99
2018-09-16T01:23:29.043Z,99.99
2018-09-16T01:24:29.457Z,99.99
2018-09-16T01:25:30.164Z,99.99
2018-09-16T01:26:30.855Z,99.99
2018-09-16T01:27:30.990Z,99.99
2018-09-16T01:28:31.126Z,99.99
2018-09-16T01:29:31.540Z,99.99
2018-09-16T01:30:31.674Z,99.99
2018-09-16T01:31:32.087Z,99.99
2018-09-16T01:32:33.073Z,99.99
2018-09-16T01:33:34.043Z,99.99
2018-09-16T01:34:34.180Z,99.99
2018-09-16T01:35:34.597Z,99.99
2018-09-16T01:36:35.007Z,99.99
2018-09-16T01:37:35.420Z,99.99
2018-09-16T01:38:35.832Z,99.99
2018-09-16T01:39:36.248Z,99.99
2018-09-16T01:40:36.385Z,99.99
2018-09-16T01:41:36.520Z,99.99
2018-09-16T01:42:37.226Z,99.99
2018-09-16T01:43:37.641Z,99.99
2018-09-16T01:44:37.776Z,99.99
2018-09-16T01:45:38.470Z,99.99
2018-09-16T01:46:38.882Z,99.99
2018-09-16T01:47:39.024Z,99.99
2018-09-16T01:48:39.993Z,99.99
2018-09-16T01:49:40.128Z,99.99
2018-09-16T01:50:40.545Z,99.99
2018-09-16T01:51:40.679Z,99.99
2018-09-16T01:52:41.664Z,99.99
2018-09-16T01:53:41.802Z,99.99
2018-09-16T01:54:41.938Z,99.99
2018-09-16T01:55:42.350Z,99.99
2018-09-16T01:56:42.765Z,99.99
2018-09-16T01:57:42.902Z,99.99
2018-09-16T01:58:43.044Z,99.99
2018-09-16T01:59:43.460Z,99.99
2018-09-16T02:00:43.873Z,99.99
2018-09-16T02:01:44.290Z,99.99
2018-09-16T02:02:45.278Z,99.99
2018-09-16T02:03:45.967Z,99.99
2018-09-16T02:04:46.102Z,99.99
2018-09-16T02:05:46.517Z,99.99
2018-09-16T02:06:46.653Z,99.99
2018-09-16T02:07:47.348Z,99.99
2018-09-16T02:08:47.766Z,99.99
2018-09-16T02:09:48.178Z,99.99
2018-09-16T02:10:48.318Z,99.99
2018-09-16T02:11:48.450Z,99.99
2018-09-16T02:12:48.996Z,99.99
2018-09-16T02:13:49.130Z,99.99
2018-09-16T02:14:49.543Z,99.99
2018-09-16T02:15:50.523Z,99.99
2018-09-16T02:16:50.657Z,99.99
2018-09-16T02:17:51.072Z,99.99
2018-09-16T02:18:51.206Z,99.99
2018-09-16T02:19:51.898Z,99.99
2018-09-16T02:20:52.034Z,99.99
2018-09-16T02:21:52.170Z,99.99
2018-09-16T02:22:52.720Z,99.99
2018-09-16T02:23:53.403Z,99.99
2018-09-16T02:24:53.817Z,99.99
2018-09-16T02:25:53.952Z,99.99
2018-09-16T02:26:54.365Z,99.99
2018-09-16T02:27:54.502Z,99.99
2018-09-16T02:28:55.196Z,99.99
2018-09-16T02:29:55.611Z,99.99
2018-09-16T02:30:56.305Z,99.99
2018-09-16T02:31:56.993Z,99.99
2018-09-16T02:32:56.983Z,99.99
2018-09-16T02:33:57.674Z,99.99
2018-09-16T02:34:57.811Z,99.99
2018-09-16T02:35:58.781Z,99.99
2018-09-16T02:36:58.749Z,99.99
2018-09-16T02:37:59.995Z,99.99
2018-09-16T02:39:00.408Z,99.99
2018-09-16T02:40:01.378Z,99.99
2018-09-16T02:41:01.792Z,99.99
2018-09-16T02:42:02.484Z,99.99
2018-09-16T02:43:03.030Z,99.99
2018-09-16T02:44:03.723Z,99.99
2018-09-16T02:45:04.705Z,99.99
2018-09-16T02:46:05.398Z,99.99
2018-09-16T02:47:05.812Z,99.99
2018-09-16T02:48:05.945Z,99.99
2018-09-16T02:49:06.080Z,99.99
2018-09-16T02:50:07.052Z,99.99
2018-09-16T02:51:08.027Z,99.99
2018-09-16T02:52:08.161Z,99.99
2018-09-16T02:53:09.148Z,99.99
2018-09-16T02:54:09.844Z,99.99
2018-09-16T02:55:09.977Z,99.99
2018-09-16T02:56:10.668Z,99.99
2018-09-16T02:57:11.640Z,99.99
2018-09-16T02:58:11.823Z,99.99
2018-09-16T02:59:12.473Z,99.99
2018-09-16T03:00:13.443Z,99.99
2018-09-16T03:01:13.855Z,99.99
2018-09-16T03:02:13.993Z,99.99
2018-09-16T03:03:14.989Z,99.99
2018-09-16T03:04:15.958Z,99.99
2018-09-16T03:05:16.372Z,99.99
2018-09-16T03:06:17.342Z,99.99
2018-09-16T03:07:17.476Z,99.99
2018-09-16T03:08:18.444Z,99.99
2018-09-16T03:09:18.582Z,99.99
2018-09-16T03:10:18.829Z,99.99
2018-09-16T03:11:18.967Z,99.99
2018-09-16T03:12:19.728Z,99.99
2018-09-16T03:13:20.713Z,99.99
2018-09-16T03:14:20.851Z,99.99
2018-09-16T03:15:21.262Z,99.99
2018-09-16T03:16:21.398Z,99.99
2018-09-16T03:17:21.811Z,99.99
2018-09-16T03:18:22.231Z,99.99
2018-09-16T03:19:22.364Z,99.99
2018-09-16T03:20:22.777Z,99.99
2018-09-16T03:21:23.188Z,99.99
2018-09-16T03:22:23.605Z,99.99
2018-09-16T03:23:24.872Z,99.99
2018-09-16T03:24:25.011Z,99.99
2018-09-16T03:25:25.429Z,99.99
2018-09-16T03:26:25.674Z,99.99
2018-09-16T03:27:26.368Z,99.99
2018-09-16T03:28:27.342Z,99.99
2018-09-16T03:29:28.036Z,99.99
2018-09-16T03:30:28.728Z,99.99
2018-09-16T03:31:29.717Z,99.99
2018-09-16T03:32:30.255Z,99.99
2018-09-16T03:33:30.073Z,99.99
2018-09-16T03:34:31.323Z,99.99
2018-09-16T03:35:32.294Z,99.99
2018-09-16T03:36:33.273Z,99.99
2018-09-16T03:37:34.252Z,99.99
2018-09-16T03:38:34.223Z,99.99
2018-09-16T03:39:35.205Z,99.99
2018-09-16T03:40:36.451Z,99.99
2018-09-16T03:41:36.865Z,99.99
2018-09-16T03:42:38.118Z,99.99
2018-09-16T03:43:38.660Z,99.99
2018-09-16T03:44:39.075Z,99.99
2018-09-16T03:45:39.523Z,99.99
2018-09-16T03:46:39.945Z,99.99
2018-09-16T03:47:40.420Z,99.99
2018-09-16T03:48:40.833Z,99.99
2018-09-16T03:49:41.254Z,99.99
2018-09-16T03:50:42.027Z,99.99
2018-09-16T03:51:41.810Z,99.99
2018-09-16T03:52:42.501Z,99.99
2018-09-16T03:53:43.504Z,99.99
2018-09-16T03:54:44.205Z,99.99
2018-09-16T03:55:44.617Z,99.99
2018-09-16T03:56:44.753Z,99.99
2018-09-16T03:57:45.168Z,99.99
2018-09-16T03:58:45.304Z,99.99
2018-09-16T03:59:45.996Z,99.99
2018-09-16T04:00:46.684Z,99.99
2018-09-16T04:01:47.658Z,99.99
2018-09-16T04:02:48.907Z,99.99
2018-09-16T04:03:49.172Z,99.99
2018-09-16T04:04:49.891Z,99.99
2018-09-16T04:05:50.579Z,99.99
2018-09-16T04:06:50.716Z,99.99
2018-09-16T04:07:51.141Z,99.99
2018-09-16T04:08:51.832Z,99.99
2018-09-16T04:09:52.548Z,99.99
2018-09-16T04:10:52.967Z,99.99
2018-09-16T04:11:53.381Z,99.99
2018-09-16T04:12:53.807Z,99.99
2018-09-16T04:13:54.803Z,99.99
2018-09-16T04:14:54.709Z,99.99
2018-09-16T04:15:55.404Z,99.99
2018-09-16T04:16:55.825Z,99.99
2018-09-16T04:17:55.959Z,99.99
2018-09-16T04:18:56.666Z,99.99
2018-09-16T04:19:57.077Z,99.99
2018-09-16T04:20:57.293Z,99.99
2018-09-16T04:21:58.018Z,99.99
2018-09-16T04:22:58.288Z,99.99
2018-09-16T04:23:58.567Z,99.99
2018-09-16T04:24:59.258Z,99.99
2018-09-16T04:25:59.393Z,99.99
2018-09-16T04:27:00.088Z,99.99
2018-09-16T04:28:00.789Z,99.99
2018-09-16T04:29:01.233Z,99.99
2018-09-16T04:30:01.338Z,99.99
2018-09-16T04:31:01.748Z,99.99
2018-09-16T04:32:02.439Z,99.99
2018-09-16T04:33:02.850Z,99.99
2018-09-16T04:34:03.549Z,99.99
2018-09-16T04:35:04.240Z,99.99
2018-09-16T04:36:04.376Z,99.99
2018-09-16T04:37:05.068Z,99.99
2018-09-16T04:38:05.762Z,99.99
2018-09-16T04:39:05.900Z,99.99
2018-09-16T04:40:06.036Z,99.99
2018-09-16T04:41:06.171Z,99.99
2018-09-16T04:42:06.309Z,99.99
2018-09-16T04:43:06.724Z,99.99
2018-09-16T04:44:07.433Z,99.99
2018-09-16T04:45:07.847Z,99.99
2018-09-16T04:46:07.814Z,99.99
2018-09-16T04:47:08.227Z,99.99
2018-09-16T04:48:08.920Z,99.99
2018-09-16T04:49:09.338Z,99.99
2018-09-16T04:50:09.482Z,99.99
2018-09-16T04:51:09.888Z,99.99
2018-09-16T04:52:10.305Z,99.99
2018-09-16T04:53:10.720Z,99.99
2018-09-16T04:54:11.987Z,99.99
2018-09-16T04:55:12.402Z,99.99
2018-09-16T04:56:12.542Z,99.99
2018-09-16T04:57:12.676Z,99.99
2018-09-16T04:58:12.818Z,99.99
2018-09-16T04:59:13.227Z,99.99
2018-09-16T05:00:13.920Z,99.99
2018-09-16T05:01:14.823Z,99.99
2018-09-16T05:02:14.761Z,99.99
2018-09-16T05:03:15.454Z,99.99
2018-09-16T05:04:15.723Z,99.99
2018-09-16T05:05:16.422Z,99.99
2018-09-16T05:06:16.834Z,99.99
2018-09-16T05:07:17.524Z,99.99
2018-09-16T05:08:17.943Z,99.99
2018-09-16T05:09:18.633Z,99.99
2018-09-16T05:10:19.084Z,99.99
2018-09-16T05:11:18.882Z,99.99
2018-09-16T05:12:19.864Z,99.99
2018-09-16T05:13:20.558Z,99.99
2018-09-16T05:14:20.827Z,99.99
2018-09-16T05:15:20.963Z,99.99
2018-09-16T05:16:21.415Z,99.99
2018-09-16T05:17:21.833Z,99.99
2018-09-16T05:18:22.525Z,99.99
2018-09-16T05:19:22.664Z,99.99
2018-09-16T05:20:23.083Z,99.99
2018-09-16T05:21:23.507Z,99.99
2018-09-16T05:22:24.492Z,99.99
2018-09-16T05:23:24.239Z,99.99
2018-09-16T05:24:24.504Z,99.99
2018-09-16T05:25:24.645Z,99.99
2018-09-16T05:26:24.785Z,99.99
2018-09-16T05:27:25.202Z,99.99
2018-09-16T05:28:25.621Z,99.99
2018-09-16T05:29:26.151Z,99.99
2018-09-16T05:30:26.564Z,99.99
2018-09-16T05:31:27.840Z,99.99
2018-09-16T05:32:27.781Z,99.99
2018-09-16T05:33:28.481Z,99.99
2018-09-16T05:34:28.748Z,99.99
2018-09-16T05:35:29.445Z,99.99
2018-09-16T05:36:30.143Z,99.99
2018-09-16T05:37:30.561Z,99.99
2018-09-16T05:38:30.978Z,99.99
2018-09-16T05:39:31.117Z,99.99
2018-09-16T05:40:31.254Z,99.99
2018-09-16T05:41:31.673Z,99.99
2018-09-16T05:42:31.813Z,99.99
2018-09-16T05:43:32.346Z,99.99
2018-09-16T05:44:32.335Z,99.99
2018-09-16T05:45:32.751Z,99.99
2018-09-16T05:46:33.444Z,99.99
2018-09-16T05:47:33.865Z,99.99
2018-09-16T05:48:34.283Z,99.99
2018-09-16T05:49:34.977Z,99.99
2018-09-16T05:50:35.116Z,99.99
2018-09-16T05:51:35.532Z,99.99
2018-09-16T05:52:36.016Z,99.99
2018-09-16T05:53:35.925Z,99.99
2018-09-16T05:54:36.517Z,99.99
2018-09-16T05:55:37.486Z,99.99
2018-09-16T05:56:38.181Z,99.99
2018-09-16T05:57:38.875Z,99.99
2018-09-16T05:58:39.014Z,99.99
2018-09-16T05:59:39.708Z,99.99
2018-09-16T06:00:40.404Z,99.99
2018-09-16T06:01:41.657Z,99.99
2018-09-16T06:02:42.076Z,99.99
2018-09-16T06:03:42.773Z,99.99
2018-09-16T06:04:43.110Z,99.99
2018-09-16T06:05:43.881Z,99.99
2018-09-16T06:06:44.027Z,99.99
2018-09-16T06:07:44.441Z,99.99
2018-09-16T06:08:45.138Z,99.99
2018-09-16T06:09:45.555Z,99.99
2018-09-16T06:10:45.768Z,99.99
2018-09-16T06:11:46.123Z,99.99
2018-09-16T06:12:46.541Z,99.99
2018-09-16T06:13:46.681Z,99.99
2018-09-16T06:14:47.949Z,99.99
2018-09-16T06:15:48.646Z,99.99
2018-09-16T06:16:48.787Z,99.99
2018-09-16T06:17:48.925Z,99.99
2018-09-16T06:18:49.345Z,99.99
2018-09-16T06:19:49.764Z,99.99
2018-09-16T06:20:50.183Z,99.99
2018-09-16T06:21:50.322Z,99.99
2018-09-16T06:22:50.877Z,99.99
2018-09-16T06:23:51.113Z,99.99
2018-09-16T06:24:52.103Z,99.99
2018-09-16T06:25:52.799Z,99.99
2018-09-16T06:26:52.937Z,99.99
2018-09-16T06:27:53.632Z,99.99
2018-09-16T06:28:53.771Z,99.99
2018-09-16T06:29:54.744Z,99.99
2018-09-16T06:30:54.884Z,99.99
2018-09-16T06:31:55.023Z,99.99
2018-09-16T06:32:55.439Z,99.99
2018-09-16T06:33:56.413Z,99.99
2018-09-16T06:34:56.695Z,99.99
2018-09-16T06:35:56.837Z,99.99
2018-09-16T06:36:57.255Z,99.99
2018-09-16T06:37:57.390Z,99.99
2018-09-16T06:38:57.527Z,99.99
2018-09-16T06:39:58.514Z,99.99
2018-09-16T06:40:59.208Z,99.99
2018-09-16T06:41:59.622Z,99.99
2018-09-16T06:42:59.764Z,99.99
2018-09-16T06:44:00.462Z,99.99
2018-09-16T06:45:00.732Z,99.99
2018-09-16T06:46:01.427Z,99.99
2018-09-16T06:47:01.567Z,99.99
2018-09-16T06:48:01.983Z,99.99
2018-09-16T06:49:02.123Z,99.99
2018-09-16T06:50:02.558Z,99.99
2018-09-16T06:51:02.795Z,99.99
2018-09-16T06:52:02.769Z,99.99
2018-09-16T06:53:03.616Z,99.99
2018-09-16T06:54:04.315Z,99.99
2018-09-16T06:55:04.866Z,99.99
2018-09-16T06:56:05.289Z,99.99
2018-09-16T06:57:05.710Z,99.99
2018-09-16T06:58:05.853Z,99.99
2018-09-16T06:59:06.270Z,99.99
2018-09-16T07:00:06.967Z,99.99
2018-09-16T07:01:07.388Z,99.99
2018-09-16T07:02:08.082Z,99.99
2018-09-16T07:03:08.780Z,99.99
2018-09-16T07:04:08.922Z,99.99
2018-09-16T07:05:09.649Z,99.99
2018-09-16T07:06:09.780Z,99.99
2018-09-16T07:07:10.196Z,99.99
2018-09-16T07:08:10.351Z,99.99
2018-09-16T07:09:10.773Z,99.99
2018-09-16T07:10:11.470Z,99.99
2018-09-16T07:11:11.612Z,99.99
2018-09-16T07:12:11.753Z,99.99
2018-09-16T07:13:12.451Z,99.99
2018-09-16T07:14:13.182Z,99.99
2018-09-16T07:15:13.461Z,99.99
2018-09-16T07:16:13.876Z,99.99
2018-09-16T07:17:14.570Z,99.99
2018-09-16T07:18:14.992Z,99.99
2018-09-16T07:19:15.417Z,99.99
2018-09-16T07:20:15.635Z,99.99
2018-09-16T07:21:16.084Z,99.99
2018-09-16T07:22:17.059Z,99.99
2018-09-16T07:23:17.202Z,99.99
2018-09-16T07:24:17.902Z,99.99
2018-09-16T07:25:18.898Z,99.99
2018-09-16T07:26:19.037Z,99.99
2018-09-16T07:27:19.582Z,99.99
2018-09-16T07:28:20.096Z,99.99
2018-09-16T07:29:20.238Z,99.99
2018-09-16T07:30:20.937Z,99.99
2018-09-16T07:31:21.633Z,99.99
2018-09-16T07:32:22.329Z,99.99
2018-09-16T07:33:22.752Z,99.99
2018-09-16T07:34:22.894Z,99.99
2018-09-16T07:35:23.443Z,99.99
2018-09-16T07:36:23.862Z,99.99
2018-09-16T07:37:24.009Z,99.99
2018-09-16T07:38:24.260Z,99.99
2018-09-16T07:39:24.678Z,99.99
2018-09-16T07:40:25.098Z,99.99
2018-09-16T07:41:25.240Z,99.99
2018-09-16T07:42:25.382Z,99.99
2018-09-16T07:43:25.805Z,99.99
2018-09-16T07:44:26.500Z,99.99
2018-09-16T07:45:26.770Z,99.99
2018-09-16T07:46:27.467Z,99.99
2018-09-16T07:47:27.943Z,99.99
2018-09-16T07:48:28.231Z,99.99
2018-09-16T07:49:28.648Z,99.99
2018-09-16T07:50:28.791Z,99.99
2018-09-16T07:51:29.493Z,99.99
2018-09-16T07:52:30.192Z,99.99
2018-09-16T07:53:32.099Z,99.99
2018-09-16T07:54:31.063Z,99.99
2018-09-16T07:55:31.777Z,99.99
2018-09-16T07:56:32.759Z,99.99
2018-09-16T07:57:32.901Z,99.99
2018-09-16T07:58:33.327Z,99.99
2018-09-16T07:59:33.746Z,99.99
2018-09-16T08:00:34.469Z,99.99
2018-09-16T08:01:35.174Z,99.99
2018-09-16T08:02:35.869Z,99.99
2018-09-16T08:03:36.292Z,99.99
2018-09-16T08:04:36.711Z,99.99
2018-09-16T08:05:37.767Z,99.99
2018-09-16T08:06:38.060Z,99.99
2018-09-16T08:07:38.777Z,99.99
2018-09-16T08:08:38.932Z,99.99
2018-09-16T08:09:39.075Z,99.99
2018-09-16T08:10:39.495Z,99.99
2018-09-16T08:11:39.915Z,99.99
2018-09-16T08:12:40.335Z,99.99
2018-09-16T08:13:40.806Z,99.99
2018-09-16T08:14:41.329Z,99.99
2018-09-16T08:15:41.608Z,99.99
2018-09-16T08:16:42.041Z,99.99
2018-09-16T08:17:42.187Z,99.99
2018-09-16T08:18:42.607Z,99.99
2018-09-16T08:19:43.026Z,99.99
2018-09-16T08:20:43.450Z,99.99
2018-09-16T08:21:44.156Z,99.99
2018-09-16T08:22:44.298Z,99.99
2018-09-16T08:23:44.718Z,99.99
2018-09-16T08:24:44.859Z,99.99
2018-09-16T08:25:45.578Z,99.99
2018-09-16T08:26:45.993Z,99.99
2018-09-16T08:27:46.138Z,99.99
2018-09-16T08:28:46.558Z,99.99
2018-09-16T08:29:46.706Z,99.99
2018-09-16T08:30:47.123Z,99.99
2018-09-16T08:31:48.078Z,99.99
2018-09-16T08:32:49.341Z,99.99
2018-09-16T08:33:50.058Z,99.99
2018-09-16T08:34:50.199Z,99.99
2018-09-16T08:35:50.500Z,99.99
2018-09-16T08:36:50.640Z,99.99
2018-09-16T08:37:51.118Z,99.99
2018-09-16T08:38:51.174Z,99.99
2018-09-16T08:39:51.871Z,99.99
2018-09-16T08:40:52.290Z,99.99
2018-09-16T08:41:52.434Z,99.99
2018-09-16T08:42:52.851Z,99.99
2018-09-16T08:43:52.990Z,99.99
2018-09-16T08:44:53.734Z,99.99
2018-09-16T08:45:53.729Z,99.99
2018-09-16T08:46:54.711Z,99.99
2018-09-16T08:47:54.853Z,99.99
2018-09-16T08:48:54.990Z,99.99
2018-09-16T08:49:55.135Z,99.99
2018-09-16T08:50:55.277Z,99.99
2018-09-16T08:51:55.977Z,99.99
2018-09-16T08:52:57.249Z,99.99
2018-09-16T08:53:56.885Z,99.99
2018-09-16T08:54:57.026Z,99.99
2018-09-16T08:55:58.026Z,99.99
2018-09-16T08:56:58.808Z,99.99
2018-09-16T08:57:59.800Z,99.99
2018-09-16T08:58:59.718Z,99.99
2018-09-16T08:59:59.860Z,99.99
2018-09-16T09:01:00.560Z,99.99
2018-09-16T09:02:01.262Z,99.99
2018-09-16T09:03:02.238Z,99.99
2018-09-16T09:04:02.382Z,99.99
2018-09-16T09:05:02.808Z,99.99
2018-09-16T09:06:03.079Z,99.99
2018-09-16T09:07:03.225Z,99.99
2018-09-16T09:08:03.926Z,99.99
2018-09-16T09:09:04.347Z,99.99
2018-09-16T09:10:04.503Z,99.99
2018-09-16T09:11:04.926Z,99.99
2018-09-16T09:12:05.073Z,99.99
2018-09-16T09:13:06.045Z,99.99
2018-09-16T09:14:07.072Z,99.99
2018-09-16T09:15:07.071Z,99.99
2018-09-16T09:16:07.627Z,99.99
2018-09-16T09:17:08.049Z,99.99
2018-09-16T09:18:08.746Z,99.99
2018-09-16T09:19:08.935Z,99.99
2018-09-16T09:20:09.359Z,99.99
2018-09-16T09:21:09.780Z,99.99
2018-09-16T09:22:10.198Z,99.99
2018-09-16T09:23:10.361Z,99.99
2018-09-16T09:24:10.800Z,99.99
2018-09-16T09:25:10.944Z,99.99
2018-09-16T09:26:11.943Z,99.99
2018-09-16T09:27:12.366Z,99.99
2018-09-16T09:28:13.066Z,99.99
2018-09-16T09:29:13.211Z,99.99
2018-09-16T09:30:13.353Z,99.99
2018-09-16T09:31:13.504Z,99.99
2018-09-16T09:32:14.202Z,99.99
2018-09-16T09:33:14.343Z,99.99
2018-09-16T09:34:14.766Z,99.99
2018-09-16T09:35:15.189Z,99.99
2018-09-16T09:36:15.614Z,99.99
2018-09-16T09:37:16.312Z,99.99
2018-09-16T09:38:17.012Z,99.99
2018-09-16T09:39:17.164Z,99.99
2018-09-16T09:40:17.860Z,99.99
2018-09-16T09:41:18.005Z,99.99
2018-09-16T09:42:18.429Z,99.99
2018-09-16T09:43:18.850Z,99.99
2018-09-16T09:44:19.549Z,99.99
2018-09-16T09:45:19.974Z,99.99
2018-09-16T09:46:20.550Z,99.99
2018-09-16T09:47:21.250Z,99.99
2018-09-16T09:48:21.399Z,99.99
2018-09-16T09:49:21.823Z,99.99
2018-09-16T09:50:22.246Z,99.99
2018-09-16T09:51:22.390Z,99.99
2018-09-16T09:52:22.535Z,99.99
2018-09-16T09:53:23.116Z,99.99
2018-09-16T09:54:23.860Z,99.99
2018-09-16T09:55:24.006Z,99.99
2018-09-16T09:56:25.000Z,99.99
2018-09-16T09:57:25.147Z,99.99
2018-09-16T09:58:25.292Z,99.99
2018-09-16T09:59:26.334Z,99.99
2018-09-16T10:00:26.229Z,99.99
2018-09-16T10:01:26.371Z,99.99
2018-09-16T10:02:26.513Z,99.99
2018-09-16T10:03:26.659Z,99.99
2018-09-16T10:04:27.359Z,99.99
2018-09-16T10:05:27.783Z,99.99
2018-09-16T10:06:28.086Z,99.99
2018-09-16T10:07:28.785Z,99.99
2018-09-16T10:08:29.490Z,99.99
2018-09-16T10:09:30.198Z,99.99
2018-09-16T10:10:30.626Z,97.62
2018-09-16T10:11:30.775Z,94.2
2018-09-16T10:12:31.210Z,90.88
2018-09-16T10:13:31.637Z,90.63
2018-09-16T10:14:32.341Z,89.23
2018-09-16T10:15:32.266Z,87.09
2018-09-16T10:16:33.545Z,84.78
2018-09-16T10:17:33.972Z,79.83
2018-09-16T10:18:34.120Z,79.45
2018-09-16T10:19:34.271Z,78.42
2018-09-16T10:20:34.699Z,77.07
2018-09-16T10:21:34.851Z,76.91
2018-09-16T10:22:35.670Z,74.3
2018-09-16T10:23:35.619Z,73.66
2018-09-16T10:24:36.052Z,71.24
2018-09-16T10:25:36.203Z,69.82
2018-09-16T10:26:36.792Z,70.05
2018-09-16T10:27:37.077Z,68.7
2018-09-16T10:28:38.422Z,68.6
2018-09-16T10:29:38.696Z,71.12
2018-09-16T10:30:39.413Z,70.05
2018-09-16T10:31:39.852Z,71.47
2018-09-16T10:32:40.281Z,73.14
2018-09-16T10:33:40.713Z,73.91
2018-09-16T10:34:41.144Z,72.66
2018-09-16T10:35:41.576Z,73.2
2018-09-16T10:36:41.901Z,73.33
2018-09-16T10:37:42.373Z,72.66
2018-09-16T10:38:43.123Z,70.95
2018-09-16T10:39:43.821Z,70.6
2018-09-16T10:40:43.976Z,69.63
2018-09-16T10:41:44.683Z,69.63
2018-09-16T10:42:45.115Z,69.92
2018-09-16T10:43:45.545Z,69.57
2018-09-16T10:44:45.983Z,69.47
2018-09-16T10:45:46.968Z,70.25
2018-09-16T10:46:47.699Z,70.98
2018-09-16T10:47:48.410Z,70.98
2018-09-16T10:48:49.121Z,71.56
2018-09-16T10:49:49.271Z,69.47
2018-09-16T10:50:49.428Z,68.3
2018-09-16T10:51:49.596Z,69.41
2018-09-16T10:52:49.765Z,70.09
2018-09-16T10:53:49.925Z,69.5
2018-09-16T10:54:50.076Z,69.64
2018-09-16T10:55:50.785Z,70.09
2018-09-16T10:56:51.071Z,67.99
2018-09-16T10:57:51.231Z,67.11
2018-09-16T10:58:51.384Z,66.95
2018-09-16T10:59:52.372Z,66.66
2018-09-16T11:00:53.085Z,65.69
2018-09-16T11:01:53.239Z,64.98
2018-09-16T11:02:53.393Z,67.37
2018-09-16T11:03:53.548Z,68.63
2018-09-16T11:04:53.703Z,69.67
2018-09-16T11:05:54.134Z,70.37
2018-09-16T11:06:54.861Z,68.24
2018-09-16T11:07:55.759Z,67.79
2018-09-16T11:08:56.205Z,66.82
2018-09-16T11:09:56.637Z,67.69
2018-09-16T11:10:57.348Z,69.31
2018-09-16T11:11:57.785Z,69.18
2018-09-16T11:12:57.946Z,69.67
2018-09-16T11:13:58.380Z,70.76
2018-09-16T11:14:59.381Z,72.3
2018-09-16T11:16:00.232Z,72.02
2018-09-16T11:17:00.235Z,71.04
2018-09-16T11:18:00.667Z,70.5
2018-09-16T11:19:01.376Z,71.66
2018-09-16T11:20:02.084Z,70.79
2018-09-16T11:21:02.240Z,69.92
2018-09-16T11:22:02.912Z,74.18
2018-09-16T11:23:03.025Z,76.12
2018-09-16T11:24:03.180Z,74.57
2018-09-16T11:25:03.612Z,73.99
2018-09-16T11:26:03.878Z,73.31
2018-09-16T11:27:04.600Z,74.08
2018-09-16T11:28:04.760Z,72.53
2018-09-16T11:29:05.191Z,72.38
2018-09-16T11:30:05.357Z,69.24
2018-09-16T11:31:06.428Z,70.15
2018-09-16T11:32:06.860Z,71.31
2018-09-16T11:33:07.014Z,70.25
2018-09-16T11:34:07.447Z,71.41
2018-09-16T11:35:07.880Z,70.73
2018-09-16T11:36:08.308Z,70.6
2018-09-16T11:37:09.313Z,73.21
2018-09-16T11:38:09.470Z,72.67
2018-09-16T11:39:09.624Z,72.47
2018-09-16T11:40:10.336Z,74.02
2018-09-16T11:41:11.047Z,75.19
2018-09-16T11:42:11.481Z,76.35
2018-09-16T11:43:11.636Z,75.77
2018-09-16T11:44:11.791Z,74.32
2018-09-16T11:45:12.224Z,75.57
2018-09-16T11:46:13.210Z,73.35
2018-09-16T11:47:13.329Z,74.51
2018-09-16T11:48:13.481Z,72.96
2018-09-16T11:49:14.232Z,74.38
2018-09-16T11:50:13.941Z,73.79
2018-09-16T11:51:14.931Z,76.08
2018-09-16T11:52:15.638Z,76.37
2018-09-16T11:53:16.073Z,75.15
2018-09-16T11:54:16.781Z,74.92
2018-09-16T11:55:17.213Z,76.14
2018-09-16T11:56:17.366Z,76.87
2018-09-16T11:57:17.665Z,77.17
2018-09-16T11:58:17.818Z,78.13
2018-09-16T11:59:18.249Z,78.13
2018-09-16T12:00:18.402Z,79.58
2018-09-16T12:01:18.562Z,79.2
2018-09-16T12:02:18.992Z,78.61
2018-09-16T12:03:19.424Z,79.2
2018-09-16T12:04:20.131Z,82
2018-09-16T12:05:20.304Z,81.27
2018-09-16T12:06:20.819Z,82.91
2018-09-16T12:07:22.102Z,79.43
2018-09-16T12:08:22.536Z,77.05
2018-09-16T12:09:23.248Z,78.27
2018-09-16T12:10:23.404Z,78.08
2018-09-16T12:11:23.551Z,77.88
2018-09-16T12:12:23.704Z,78.56
2018-09-16T12:13:24.691Z,81.07
2018-09-16T12:14:25.401Z,81.79
2018-09-16T12:15:25.829Z,78.89
2018-09-16T12:16:26.128Z,77.14
2018-09-16T12:17:26.176Z,76.82
2018-09-16T12:18:26.327Z,77.3
2018-09-16T12:19:26.483Z,78.75
2018-09-16T12:20:26.980Z,79.14
2018-09-16T12:21:27.133Z,77.92
2018-09-16T12:22:27.559Z,75.98
2018-09-16T12:23:27.999Z,75.89
2018-09-16T12:24:28.422Z,77.34
2018-09-16T12:25:29.131Z,79.27
2018-09-16T12:26:29.836Z,78.31
2018-09-16T12:27:30.843Z,79.17
2018-09-16T12:28:31.392Z,80.73
2018-09-16T12:29:31.544Z,82.28
2018-09-16T12:30:31.694Z,82.37
2018-09-16T12:31:32.407Z,79.95
2018-09-16T12:32:32.838Z,80.82
2018-09-16T12:33:33.271Z,78.92
2018-09-16T12:34:33.421Z,77.96
2018-09-16T12:35:33.569Z,77.37
2018-09-16T12:36:34.005Z,76.41
2018-09-16T12:37:34.840Z,74.6
2018-09-16T12:38:35.269Z,74.12
2018-09-16T12:39:35.421Z,76.31
2018-09-16T12:40:35.578Z,75.54
2018-09-16T12:41:35.726Z,78.74
2018-09-16T12:42:35.878Z,79.32
2018-09-16T12:43:36.031Z,75.34
2018-09-16T12:44:36.460Z,73.21
2018-09-16T12:45:36.616Z,73.66
2018-09-16T12:46:37.881Z,74.24
2018-09-16T12:47:37.718Z,74.43
2018-09-16T12:48:38.428Z,73.27
2018-09-16T12:49:38.857Z,72.89
2018-09-16T12:50:39.011Z,74.11
2018-09-16T12:51:39.162Z,74.01
2018-09-16T12:52:40.439Z,74.21
2018-09-16T12:53:41.142Z,76.56
2018-09-16T12:54:41.851Z,80.24
2018-09-16T12:55:42.556Z,80.54
2018-09-16T12:56:42.711Z,78.05
2018-09-16T12:57:43.437Z,74.28
2018-09-16T12:58:43.588Z,73.89
2018-09-16T12:59:43.741Z,72.89